Etusivu
METAR-TAF:

METAR-TAF

Lentoasemat :

Mannheim, Saksa

Leveyspiiri: 49-28-21N, Pituuspiiri: 008-30-56E, korkeus merenpinnasta: 100 m

Tämänhetkinen sää

Tämä raportti tehtiin 22 minuuttia sitten, kello 21.20 UTC
Tuuli 6 kn pohjoisesta
Lämpötila 5°C
Kosteus 70%
Ilmanpaine 1023 hPa
Näkyvyys 10 km tai enemmän

METAR: EDFM 212120Z AUTO 01006KT 9999 // BKN082/// OVC096/// 05/M00 Q1023

Aika: 23:42 (21:42 UTC)


TAF: puuttuu

Säähavainnot ja -ennusteet yli 4000 lentoasemalta (METAR- ja TAF-raportit).

Käytössä olevat sääasemat on merkitty karttaan keltaisilla ja punaisilla pisteillä.

Aseta hiiri pisteen päälle nähdäksesi sääaseman nimen.

Klikkaa sitten nähdäksesi säähavainnot ja -ennusteet.

Kartan vaihtaminen: klikkaa mustalla rastilla varustettuja vihreitä pisteitä, niin voit zoomata sisään; viivalla varustettua vihreää pistettä, niin voit zoomata ulos tai vihreitä nuolia, niin pääset viereisille kartoille.


METAR-TAF: